AQW weather

Harriman and West Airport
North Adams, Massachusetts, United States

Public forecast

Using degrees Fahrenheit for public forecast. Weather courtesy of forecast.io.

Current aviation weather report (METAR) for Harriman and West Airport

Report is more than 6 hours old.

Retrieved 2020/08/03 19:52 UTC (2 days ago):

KAQW 031952Z AUTO 30007KT 260V360 10SM BKN049 29/17 A3002 RMK AO2 SLP161 T02890172

Closest aviation forecast (TAF) to Harriman and West Airport

Closest forecast is Pittsfield Municipal Airport, 17.0 nm (31.6 km) SSW. Retrieved 2020-08-06 00:21 UTC (20 minutes ago):

TAF KPSF 052320Z 0600/0624 29005KT P6SM SCT060 TEMPO 0600/0602 BKN060 FM060200 VRB03KT P6SM FEW035 TEMPO 0608/0612 00000KT 1SM BR SCT001 FM061200 30003KT P6SM VCFG SKC FM061400 29005KT P6SM FEW035 SCT080 SCT250